createdAt,value
2023-07-28T00:00:29.052Z,2.85
2023-07-28T00:05:33.245Z,2.55
2023-07-28T00:10:34.749Z,3.08
2023-07-28T00:15:36.476Z,3.35
2023-07-28T00:20:38.015Z,3.85
2023-07-28T00:25:39.435Z,4.05
2023-07-28T00:30:41.134Z,4.25
2023-07-28T00:35:42.606Z,5.30
2023-07-28T00:40:43.985Z,4.82
2023-07-28T00:45:45.492Z,6.43
2023-07-28T00:50:49.372Z,6.35
2023-07-28T00:55:50.842Z,6.25
2023-07-28T01:00:52.405Z,6.22
2023-07-28T01:06:13.336Z,6.25
2023-07-28T01:11:15.481Z,6.38
2023-07-28T01:16:17.202Z,6.57
2023-07-28T01:21:22.919Z,6.10
2023-07-28T01:26:37.465Z,6.93
2023-07-28T01:31:40.482Z,6.43
2023-07-28T01:36:41.996Z,4.28
2023-07-28T01:41:43.530Z,3.03
2023-07-28T01:46:44.979Z,2.60
2023-07-28T01:51:47.046Z,3.20
2023-07-28T01:56:48.654Z,3.60
2023-07-28T02:01:50.115Z,4.18
2023-07-28T02:06:53.632Z,4.25
2023-07-28T02:11:55.418Z,5.13
2023-07-28T02:16:57.076Z,5.35
2023-07-28T02:21:58.551Z,5.22
2023-07-28T02:27:00.041Z,5.65
2023-07-28T02:32:01.472Z,6.05
2023-07-28T02:37:02.918Z,5.72
2023-07-28T02:42:04.517Z,7.57
2023-07-28T02:47:06.515Z,6.82
2023-07-28T02:52:08.390Z,7.25
2023-07-28T02:57:09.856Z,7.20
2023-07-28T03:02:11.258Z,7.43
2023-07-28T03:07:12.735Z,7.38
2023-07-28T03:12:14.233Z,7.75
2023-07-28T03:17:15.671Z,7.55
2023-07-28T03:22:17.650Z,7.65
2023-07-28T03:27:19.168Z,8.50
2023-07-28T03:32:20.565Z,9.45
2023-07-28T03:37:22.264Z,8.05
2023-07-28T03:42:23.816Z,8.20
2023-07-28T03:47:25.262Z,8.27
2023-07-28T03:52:26.708Z,8.70
2023-07-28T03:57:28.099Z,9.25
2023-07-28T04:02:29.645Z,9.45
2023-07-28T04:07:31.387Z,8.57
2023-07-28T04:12:32.869Z,8.82
2023-07-28T04:17:34.441Z,8.90
2023-07-28T04:22:35.941Z,9.35
2023-07-28T04:27:37.416Z,8.68
2023-07-28T04:32:39.190Z,9.02
2023-07-28T04:37:40.617Z,7.97
2023-07-28T04:42:42.265Z,7.60
2023-07-28T04:47:43.888Z,9.00
2023-07-28T04:52:45.425Z,8.10
2023-07-28T04:57:47.124Z,9.30
2023-07-28T05:02:48.592Z,8.70
2023-07-28T05:07:50.041Z,9.93
2023-07-28T05:12:51.503Z,9.05
2023-07-28T05:17:52.974Z,10.07
2023-07-28T05:22:54.440Z,9.55
2023-07-28T05:27:56.000Z,10.05
2023-07-28T05:32:57.514Z,9.77
2023-07-28T05:37:58.991Z,10.35
2023-07-28T05:43:00.478Z,10.45
2023-07-28T05:48:01.851Z,10.10
2023-07-28T05:53:03.290Z,10.50
2023-07-28T05:58:04.785Z,10.73
2023-07-28T06:03:06.330Z,10.25
2023-07-28T06:08:07.869Z,11.73
2023-07-28T06:13:09.618Z,11.98
2023-07-28T06:18:11.016Z,12.05
2023-07-28T06:23:12.410Z,10.40
2023-07-28T06:28:14.312Z,11.23
2023-07-28T06:33:15.938Z,11.85
2023-07-28T06:38:17.385Z,12.15
2023-07-28T06:43:18.816Z,12.70
2023-07-28T06:48:20.255Z,11.65
2023-07-28T06:53:21.708Z,11.60
2023-07-28T06:58:23.325Z,12.20
2023-07-28T07:03:24.785Z,12.75
2023-07-28T07:08:26.167Z,11.75
2023-07-28T07:13:27.816Z,12.40
2023-07-28T07:18:29.498Z,12.93
2023-07-28T07:23:30.907Z,11.55
2023-07-28T07:28:32.337Z,12.55
2023-07-28T07:33:33.920Z,11.25
2023-07-28T07:38:35.377Z,11.05
2023-07-28T07:43:36.796Z,11.23
2023-07-28T07:48:38.256Z,11.18
2023-07-28T07:53:39.812Z,11.88
2023-07-28T07:58:41.277Z,11.80
2023-07-28T08:03:42.686Z,14.73
2023-07-28T08:08:44.403Z,10.00
2023-07-28T08:13:47.522Z,10.57
2023-07-28T08:18:48.922Z,10.50
2023-07-28T08:23:50.311Z,11.20
2023-07-28T08:28:51.712Z,10.48
2023-07-28T08:33:53.154Z,10.52
2023-07-28T08:38:54.631Z,9.23
2023-07-28T08:43:56.406Z,9.38
2023-07-28T08:48:57.912Z,8.48
2023-07-28T08:53:59.994Z,8.55
2023-07-28T08:59:01.371Z,8.10
2023-07-28T09:04:02.982Z,7.47
2023-07-28T09:09:07.605Z,7.30
2023-07-28T09:14:12.906Z,5.57
2023-07-28T09:19:15.160Z,5.00
2023-07-28T09:24:16.668Z,5.07
2023-07-28T09:29:20.021Z,4.30
2023-07-28T09:34:28.563Z,4.30
2023-07-28T09:39:30.024Z,3.57
2023-07-28T09:44:31.462Z,4.13
2023-07-28T09:49:42.335Z,3.97
2023-07-28T09:54:45.341Z,3.60
2023-07-28T10:04:49.516Z,3.33
2023-07-28T10:09:51.087Z,3.63
2023-07-28T10:15:02.576Z,2.90
2023-07-28T10:20:05.248Z,2.38
2023-07-28T10:25:07.338Z,2.20
2023-07-28T10:30:13.470Z,2.75
2023-07-28T10:35:14.859Z,2.60
2023-07-28T10:40:31.225Z,2.38
2023-07-28T10:45:33.691Z,2.50
2023-07-28T10:50:35.102Z,2.55
2023-07-28T10:55:36.523Z,2.17
2023-07-28T11:00:37.967Z,2.80
2023-07-28T11:05:39.597Z,2.25
2023-07-28T11:10:41.967Z,3.50
2023-07-28T11:15:44.753Z,2.50
2023-07-28T11:20:46.178Z,2.33
2023-07-28T11:25:47.620Z,2.63
2023-07-28T11:30:49.117Z,2.15
2023-07-28T11:35:50.554Z,1.20
2023-07-28T11:40:53.019Z,1.20
2023-07-28T11:45:54.462Z,1.30
2023-07-28T11:50:55.882Z,1.52
2023-07-28T11:55:57.350Z,1.30
2023-07-28T12:21:44.837Z,1.30
2023-07-28T12:26:47.448Z,1.42
2023-07-28T12:31:49.045Z,1.40
2023-07-28T12:36:54.057Z,1.15
2023-07-28T12:47:01.363Z,1.25
2023-07-28T12:52:06.096Z,1.30
2023-07-28T13:02:11.962Z,1.10
2023-07-28T13:17:22.123Z,1.30
2023-07-28T13:22:23.993Z,1.20
2023-07-28T13:27:25.383Z,0.90
2023-07-28T13:32:26.824Z,1.20
2023-07-28T13:42:29.546Z,1.52
2023-07-28T13:47:31.140Z,1.23
2023-07-28T13:52:32.678Z,1.30
2023-07-28T13:57:34.170Z,1.20
2023-07-28T14:02:39.359Z,1.30
2023-07-28T14:07:40.947Z,1.55
2023-07-28T14:12:42.423Z,1.30
2023-07-28T14:17:43.958Z,1.40
2023-07-28T14:22:45.408Z,1.30
2023-07-28T14:27:46.816Z,1.65
2023-07-28T14:32:48.266Z,1.40
2023-07-28T14:37:49.813Z,2.40
2023-07-28T14:42:51.195Z,1.88
2023-07-28T14:47:52.778Z,2.35
2023-07-28T14:52:54.205Z,2.80
2023-07-28T14:57:55.651Z,2.75
2023-07-28T15:02:57.500Z,3.17
2023-07-28T15:07:59.167Z,3.15
2023-07-28T15:13:00.651Z,3.20
2023-07-28T15:18:02.536Z,2.88
2023-07-28T15:23:04.002Z,2.65
2023-07-28T15:28:05.477Z,2.75
2023-07-28T15:33:07.014Z,2.83
2023-07-28T15:38:08.549Z,2.60
2023-07-28T15:43:09.955Z,2.67
2023-07-28T15:48:11.451Z,2.80
2023-07-28T15:53:12.864Z,2.58
2023-07-28T15:58:14.422Z,2.70
2023-07-28T16:03:15.846Z,2.70
2023-07-28T16:08:17.359Z,2.80
2023-07-28T16:13:18.759Z,2.75
2023-07-28T16:18:20.462Z,2.70
2023-07-28T16:23:21.911Z,2.55
2023-07-28T16:28:23.328Z,2.42
2023-07-28T16:33:24.842Z,4.55
2023-07-28T16:38:26.271Z,2.63
2023-07-28T16:43:27.670Z,2.35
2023-07-28T16:48:29.187Z,2.45
2023-07-28T16:53:30.595Z,3.00
2023-07-28T16:58:31.992Z,2.35
2023-07-28T17:03:33.410Z,2.00
2023-07-28T17:08:34.826Z,2.05
2023-07-28T17:13:36.254Z,1.75
2023-07-28T17:18:37.890Z,1.70
2023-07-28T17:23:39.259Z,1.40
2023-07-28T17:28:40.647Z,2.00
2023-07-28T17:33:42.038Z,1.77
2023-07-28T17:38:43.441Z,1.80
2023-07-28T17:43:44.837Z,2.40
2023-07-28T17:48:46.233Z,2.10
2023-07-28T17:53:47.647Z,2.10
2023-07-28T17:58:49.034Z,2.20
2023-07-28T18:03:50.508Z,2.63
2023-07-28T18:08:51.963Z,2.20
2023-07-28T18:13:53.373Z,3.30
2023-07-28T18:18:54.835Z,2.53
2023-07-28T18:23:56.233Z,2.70
2023-07-28T18:28:57.615Z,2.80
2023-07-28T18:33:59.033Z,2.70
2023-07-28T18:39:00.433Z,2.85
2023-07-28T18:44:01.894Z,2.70
2023-07-28T18:49:03.325Z,2.80
2023-07-28T18:54:10.331Z,3.45
2023-07-28T18:59:11.724Z,3.20
2023-07-28T19:04:13.431Z,2.72
2023-07-28T19:09:15.056Z,3.13
2023-07-28T19:14:16.546Z,3.10
2023-07-28T19:19:18.013Z,2.85
2023-07-28T19:24:19.473Z,3.72
2023-07-28T19:29:21.074Z,3.45
2023-07-28T19:34:22.710Z,3.10
2023-07-28T19:39:24.901Z,3.55
2023-07-28T19:44:40.085Z,3.35
2023-07-28T19:49:43.431Z,3.08
2023-07-28T19:54:44.957Z,3.47
2023-07-28T19:59:46.426Z,3.47
2023-07-28T20:04:47.871Z,3.55
2023-07-28T20:09:49.466Z,2.65
2023-07-28T20:14:51.221Z,3.25
2023-07-28T20:19:52.955Z,3.50
2023-07-28T20:24:54.353Z,3.20
2023-07-28T20:29:55.766Z,3.67
2023-07-28T20:34:57.167Z,3.40
2023-07-28T20:39:58.599Z,3.55
2023-07-28T20:45:00.023Z,3.53
2023-07-28T20:50:01.784Z,3.67
2023-07-28T20:55:03.720Z,3.70
2023-07-28T21:00:05.731Z,4.25
2023-07-28T21:05:07.272Z,4.57
2023-07-28T21:10:08.996Z,4.13
2023-07-28T21:15:10.535Z,4.57
2023-07-28T21:20:12.700Z,4.75
2023-07-28T21:25:14.126Z,5.15
2023-07-28T21:30:15.530Z,5.30
2023-07-28T21:35:17.027Z,5.22
2023-07-28T21:40:18.512Z,5.72
2023-07-28T21:45:20.422Z,4.55
2023-07-28T21:50:21.901Z,5.35
2023-07-28T21:55:23.440Z,6.13
2023-07-28T22:00:24.845Z,5.65
2023-07-28T22:05:26.254Z,5.60
2023-07-28T22:10:27.791Z,5.78
2023-07-28T22:15:29.431Z,6.30
2023-07-28T22:20:33.604Z,5.90
2023-07-28T22:25:43.389Z,6.43
2023-07-28T22:30:46.191Z,6.63
2023-07-28T22:35:49.141Z,7.00
2023-07-28T22:40:50.863Z,6.90
2023-07-28T22:45:52.385Z,7.13
2023-07-28T22:50:53.977Z,7.10
2023-07-28T22:55:55.419Z,5.97
2023-07-28T23:00:56.843Z,7.32
2023-07-28T23:05:58.384Z,6.30
2023-07-28T23:11:00.190Z,6.65
2023-07-28T23:16:01.921Z,6.97
2023-07-28T23:21:03.498Z,7.18
2023-07-28T23:26:05.107Z,7.05
2023-07-28T23:31:17.742Z,7.40
2023-07-28T23:36:19.669Z,7.38
2023-07-28T23:41:21.200Z,7.70
2023-07-28T23:46:22.784Z,7.03
2023-07-28T23:51:24.400Z,8.15
2023-07-28T23:56:25.810Z,7.82
